createdAt,value
2018-01-19T00:00:59.088Z,92.66
2018-01-19T00:01:58.805Z,92.76
2018-01-19T00:02:59.074Z,92.61
2018-01-19T00:03:58.833Z,92.52
2018-01-19T00:04:59.101Z,92.61
2018-01-19T00:05:58.912Z,92.9
2018-01-19T00:06:59.127Z,92.8
2018-01-19T00:07:58.889Z,92.99
2018-01-19T00:08:59.157Z,92.9
2018-01-19T00:09:58.917Z,93.08
2018-01-19T00:10:58.930Z,93.94
2018-01-19T00:11:58.946Z,93.94
2018-01-19T00:12:58.962Z,93.84
2018-01-19T00:13:58.972Z,93.27
2018-01-19T00:14:59.237Z,93.08
2018-01-19T00:15:58.999Z,93.18
2018-01-19T00:16:59.263Z,92.99
2018-01-19T00:17:59.027Z,93.18
2018-01-19T00:18:59.289Z,92.94
2018-01-19T00:19:59.309Z,93.18
2018-01-19T00:20:59.366Z,92.9
2018-01-19T00:21:59.081Z,93.23
2018-01-19T00:22:59.095Z,92.66
2018-01-19T00:23:59.361Z,92.9
2018-01-19T00:24:59.126Z,92.8
2018-01-19T00:25:59.387Z,92.99
2018-01-19T00:26:59.400Z,93.37
2018-01-19T00:27:59.161Z,92.76
2018-01-19T00:28:59.436Z,93.84
2018-01-19T00:29:59.193Z,92.9
2018-01-19T00:30:59.202Z,92.94
2018-01-19T00:31:59.467Z,92.85
2018-01-19T00:32:59.481Z,93.04
2018-01-19T00:33:59.244Z,92.9
2018-01-19T00:34:59.258Z,92.76
2018-01-19T00:35:59.322Z,93.04
2018-01-19T00:36:59.284Z,93.32
2018-01-19T00:37:59.553Z,92.85
2018-01-19T00:38:59.313Z,93.41
2018-01-19T00:39:59.327Z,92.76
2018-01-19T00:40:59.340Z,92.85
2018-01-19T00:41:59.354Z,92.94
2018-01-19T00:42:59.415Z,93.04
2018-01-19T00:43:59.630Z,92.8
2018-01-19T00:44:59.676Z,92.94
2018-01-19T00:46:00.407Z,92.85
2018-01-19T00:46:59.421Z,92.76
2018-01-19T00:47:59.690Z,93.04
2018-01-19T00:48:59.449Z,92.76
2018-01-19T00:49:59.711Z,92.66
2018-01-19T00:50:59.777Z,93.32
2018-01-19T00:51:59.494Z,93.04
2018-01-19T00:52:59.758Z,93.04
2018-01-19T00:53:59.520Z,92.94
2018-01-19T00:54:59.784Z,92.94
2018-01-19T00:55:59.547Z,92.47
2018-01-19T00:56:59.810Z,92.18
2018-01-19T00:57:59.826Z,92.57
2018-01-19T00:58:59.586Z,92.57
2018-01-19T00:59:59.858Z,92.57
2018-01-19T01:00:59.868Z,92.47
2018-01-19T01:01:59.900Z,92.85
2018-01-19T01:02:59.901Z,92.9
2018-01-19T01:03:59.909Z,91.99
2018-01-19T01:04:59.670Z,92.09
2018-01-19T01:05:59.937Z,92.14
2018-01-19T01:07:00.028Z,92.28
2018-01-19T01:07:59.966Z,92.28
2018-01-19T01:08:59.981Z,92.18
2018-01-19T01:09:59.745Z,92.38
2018-01-19T01:10:59.755Z,92.28
2018-01-19T01:11:59.771Z,92.18
2018-01-19T01:12:59.786Z,92.9
2018-01-19T01:13:59.799Z,92.14
2018-01-19T01:14:59.813Z,92.23
2018-01-19T01:15:59.832Z,92.23
2018-01-19T01:17:00.096Z,92.23
2018-01-19T01:17:59.858Z,92.28
2018-01-19T01:19:00.123Z,92.42
2018-01-19T01:20:00.136Z,92.33
2018-01-19T01:21:00.153Z,92.14
2018-01-19T01:22:00.219Z,91.94
2018-01-19T01:22:59.930Z,92.9
2018-01-19T01:24:00.196Z,92.23
2018-01-19T01:25:00.217Z,92.33
2018-01-19T01:26:00.225Z,92.42
2018-01-19T01:27:00.238Z,92.85
2018-01-19T01:28:00.254Z,92.66
2018-01-19T01:29:00.268Z,92.66
2018-01-19T01:30:00.036Z,92.28
2018-01-19T02:01:52.428Z,92.85
2018-01-19T02:02:43.278Z,92.85
2018-01-19T02:03:43.301Z,92.94
2018-01-19T02:04:43.303Z,93.04
2018-01-19T02:05:43.319Z,93.04
2018-01-19T02:06:43.343Z,92.85
2018-01-19T02:07:43.347Z,92.94
2018-01-19T02:08:43.358Z,93.13
2018-01-19T02:09:43.126Z,93.04
2018-01-19T02:10:43.136Z,92.76
2018-01-19T02:11:43.405Z,93.04
2018-01-19T02:12:43.417Z,93.13
2018-01-19T02:13:43.446Z,92.8
2018-01-19T02:14:43.442Z,92.85
2018-01-19T02:15:43.459Z,93.04
2018-01-19T02:16:43.255Z,93.13
2018-01-19T02:17:43.538Z,92.76
2018-01-19T02:18:43.502Z,93.08
2018-01-19T02:19:43.262Z,93.23
2018-01-19T02:20:43.529Z,93.18
2018-01-19T02:21:43.544Z,93.08
2018-01-19T02:22:43.564Z,93.13
2018-01-19T02:23:43.568Z,92.8
2018-01-19T02:24:43.334Z,93.08
2018-01-19T02:25:43.344Z,93.18
2018-01-19T02:26:43.611Z,93.18
2018-01-19T02:27:43.373Z,93.18
2018-01-19T02:28:43.388Z,93.18
2018-01-19T02:29:43.654Z,92.99
2018-01-19T02:30:43.416Z,92.99
2018-01-19T02:31:43.435Z,92.71
2018-01-19T02:32:43.745Z,92.99
2018-01-19T02:33:43.458Z,92.99
2018-01-19T02:34:43.476Z,92.71
2018-01-19T02:35:43.490Z,92.71
2018-01-19T02:36:43.499Z,92.9
2018-01-19T02:37:43.765Z,92.99
2018-01-19T02:38:43.525Z,93.37
2018-01-19T02:39:43.801Z,93.56
2018-01-19T02:40:43.553Z,92.99
2018-01-19T02:41:43.578Z,93.56
2018-01-19T02:42:43.581Z,92.99
2018-01-19T02:43:43.847Z,93.18
2018-01-19T02:44:43.859Z,93.18
2018-01-19T02:45:43.623Z,92.99
2018-01-19T02:46:43.888Z,93.08
2018-01-19T02:47:43.951Z,92.9
2018-01-19T02:48:43.921Z,93.27
2018-01-19T02:49:43.677Z,92.99
2018-01-19T02:50:43.691Z,93.37
2018-01-19T02:51:43.719Z,93.27
2018-01-19T02:52:43.719Z,92.9
2018-01-19T02:53:43.732Z,93.27
2018-01-19T02:54:43.995Z,92.99
2018-01-19T02:55:44.009Z,93.27
2018-01-19T02:56:43.774Z,92.9
2018-01-19T02:57:43.788Z,92.99
2018-01-19T02:58:44.051Z,93.08
2018-01-19T02:59:43.830Z,92.9
2018-01-19T03:00:44.080Z,92.99
2018-01-19T03:01:43.841Z,93.18
2018-01-19T03:02:43.904Z,93.18
2018-01-19T03:03:44.123Z,93.37
2018-01-19T03:04:44.132Z,92.99
2018-01-19T03:05:43.896Z,92.8
2018-01-19T03:06:44.162Z,92.9
2018-01-19T03:07:44.173Z,92.8
2018-01-19T03:08:44.203Z,92.99
2018-01-19T03:09:43.952Z,92.8
2018-01-19T03:10:44.221Z,92.99
2018-01-19T03:11:44.229Z,92.99
2018-01-19T03:12:44.243Z,92.8
2018-01-19T03:13:44.256Z,93.18
2018-01-19T03:14:44.271Z,92.99
2018-01-19T03:15:44.284Z,93.08
2018-01-19T03:16:44.299Z,92.8
2018-01-19T03:17:44.364Z,92.71
2018-01-19T03:18:44.331Z,92.9
2018-01-19T03:19:44.340Z,92.14
2018-01-19T03:20:44.109Z,92.71
2018-01-19T03:21:44.367Z,92.9
2018-01-19T03:22:44.389Z,92.85
2018-01-19T03:23:44.145Z,92.9
2018-01-19T03:24:44.156Z,92.8
2018-01-19T03:25:44.423Z,92.99
2018-01-19T03:26:44.436Z,93.08
2018-01-19T03:27:44.453Z,92.99
2018-01-19T03:28:44.216Z,92.61
2018-01-19T03:29:44.226Z,92.9
2018-01-19T03:30:44.494Z,92.42
2018-01-19T03:31:44.508Z,93.18
2018-01-19T03:32:44.268Z,92.9
2018-01-19T03:33:44.533Z,92.99
2018-01-19T03:34:44.595Z,92.99
2018-01-19T03:35:44.560Z,93.18
2018-01-19T03:36:44.576Z,92.23
2018-01-19T03:37:44.339Z,93.08
2018-01-19T03:38:44.603Z,93.08
2018-01-19T03:39:44.366Z,92.99
2018-01-19T03:40:44.380Z,92.99
2018-01-19T03:41:44.393Z,92.8
2018-01-19T03:42:44.406Z,92.99
2018-01-19T03:43:44.421Z,92.71
2018-01-19T03:44:44.434Z,92.99
2018-01-19T03:45:44.698Z,92.99
2018-01-19T03:46:44.712Z,92.71
2018-01-19T03:47:44.475Z,92.9
2018-01-19T03:48:44.740Z,92.99
2018-01-19T03:49:45.554Z,92.99
2018-01-19T03:50:44.517Z,92.99
2018-01-19T03:51:44.781Z,93.04
2018-01-19T03:52:44.544Z,93.08
2018-01-19T03:53:44.557Z,92.8
2018-01-19T03:54:44.572Z,92.99
2018-01-19T03:55:44.837Z,92.76
2018-01-19T03:56:44.617Z,93.41
2018-01-19T03:57:44.863Z,93.13
2018-01-19T03:58:44.626Z,92.85
2018-01-19T03:59:44.641Z,92.85
2018-01-19T04:00:44.652Z,92.76
2018-01-19T04:01:44.918Z,92.8
2018-01-19T04:02:44.932Z,93.37
2018-01-19T04:03:44.951Z,93.27
2018-01-19T04:04:44.961Z,92.71
2018-01-19T04:05:44.972Z,94.04
2018-01-19T04:06:44.986Z,93.37
2018-01-19T04:07:44.751Z,93.37
2018-01-19T04:08:45.016Z,93.75
2018-01-19T04:09:44.827Z,93.27
2018-01-19T04:10:45.043Z,93.46
2018-01-19T04:11:44.804Z,94.04
2018-01-19T04:12:44.818Z,93.84
2018-01-19T04:13:45.105Z,93.37
2018-01-19T04:14:44.847Z,93.46
2018-01-19T04:15:45.114Z,93.7
2018-01-19T04:16:44.872Z,94.04
2018-01-19T04:17:45.142Z,93.94
2018-01-19T04:18:44.901Z,93.94
2018-01-19T04:19:44.913Z,93.94
2018-01-19T04:20:45.250Z,94.04
2018-01-19T04:21:45.193Z,93.56
2018-01-19T04:22:44.957Z,93.56
2018-01-19T04:23:45.224Z,93.37
2018-01-19T04:24:45.288Z,93.84
2018-01-19T04:25:45.248Z,93.56
2018-01-19T04:26:45.260Z,93.37
2018-01-19T04:27:45.275Z,93.56
2018-01-19T04:28:45.288Z,93.37
2018-01-19T04:29:45.052Z,93.75
2018-01-19T04:30:45.320Z,93.65
2018-01-19T04:31:45.330Z,93.65
2018-01-19T04:32:45.102Z,93.56
2018-01-19T04:33:45.107Z,93.84
2018-01-19T04:34:45.423Z,93.65
2018-01-19T04:35:45.135Z,93.56
2018-01-19T04:36:45.400Z,93.94
2018-01-19T04:37:45.163Z,93.84
2018-01-19T04:38:45.425Z,93.65
2018-01-19T04:39:45.490Z,93.7
2018-01-19T04:40:45.217Z,93.84
2018-01-19T04:41:45.469Z,93.8
2018-01-19T04:42:45.481Z,92.9
2018-01-19T04:43:45.248Z,92.8
2018-01-19T04:44:45.507Z,93.56
2018-01-19T04:45:45.522Z,92.99
2018-01-19T04:46:45.537Z,94.04
2018-01-19T04:47:45.548Z,93.84
2018-01-19T04:48:45.313Z,94.04
2018-01-19T04:49:45.588Z,93.84
2018-01-19T04:50:45.342Z,92.9
2018-01-19T04:51:45.356Z,92.9
2018-01-19T04:52:45.622Z,93.46
2018-01-19T04:53:45.634Z,92.9
2018-01-19T04:54:45.452Z,92.8
2018-01-19T04:55:45.661Z,93.27
2018-01-19T04:56:45.678Z,92.9
2018-01-19T04:57:45.438Z,93.27
2018-01-19T04:58:45.453Z,93.46
2018-01-19T04:59:45.717Z,93.27
2018-01-19T05:00:45.733Z,93.27
2018-01-19T05:01:45.496Z,92.99
2018-01-19T05:02:45.761Z,93.46
2018-01-19T05:03:45.520Z,93.18
2018-01-19T05:04:45.535Z,93.27
2018-01-19T05:05:45.801Z,94.04
2018-01-19T05:06:45.814Z,93.18
2018-01-19T05:07:45.830Z,92.9
2018-01-19T05:08:45.843Z,92.8
2018-01-19T05:09:45.902Z,93.84
2018-01-19T05:10:45.614Z,93.84
2018-01-19T05:11:45.881Z,93.75
2018-01-19T05:12:45.642Z,94.04
2018-01-19T05:13:45.911Z,92.9
2018-01-19T05:14:45.922Z,93.65
2018-01-19T05:15:45.932Z,93.37
2018-01-19T05:16:45.951Z,92.99
2018-01-19T05:17:45.962Z,93.27
2018-01-19T05:18:45.723Z,92.99
2018-01-19T05:19:45.988Z,93.37
2018-01-19T05:20:46.000Z,93.84
2018-01-19T05:21:46.081Z,92.8
2018-01-19T05:22:46.030Z,93.18
2018-01-19T05:23:46.042Z,93.08
2018-01-19T05:24:45.853Z,93.27
2018-01-19T05:25:46.072Z,93.18
2018-01-19T05:26:46.081Z,92.9
2018-01-19T05:27:46.097Z,93.56
2018-01-19T05:28:46.109Z,93.18
2018-01-19T05:29:45.871Z,93.37
2018-01-19T05:30:46.133Z,92.99
2018-01-19T05:31:45.899Z,93.08
2018-01-19T05:32:46.162Z,92.8
2018-01-19T05:33:46.183Z,92.99
2018-01-19T05:34:45.939Z,92.61
2018-01-19T05:35:46.203Z,93.18
2018-01-19T05:36:45.965Z,92.9
2018-01-19T05:37:46.260Z,93.08
2018-01-19T05:38:45.991Z,92.99
2018-01-19T05:39:46.056Z,92.99
2018-01-19T05:40:46.271Z,93.27
2018-01-19T05:41:46.286Z,92.99
2018-01-19T05:42:46.049Z,93.08
2018-01-19T05:43:46.311Z,93.18
2018-01-19T05:44:46.076Z,93.27
2018-01-19T05:45:46.344Z,92.9
2018-01-19T05:46:46.105Z,93.08
2018-01-19T05:47:46.367Z,93.18
2018-01-19T05:48:46.429Z,92.99
2018-01-19T05:49:46.142Z,93.08
2018-01-19T05:50:46.412Z,92.99
2018-01-19T05:51:46.174Z,93.08
2018-01-19T05:52:46.434Z,93.65
2018-01-19T05:53:46.450Z,92.9
2018-01-19T05:54:46.511Z,92.8
2018-01-19T05:55:46.548Z,93.61
2018-01-19T05:56:46.236Z,93.75
2018-01-19T05:57:46.248Z,93.84
2018-01-19T05:58:46.261Z,93.65
2018-01-19T05:59:46.528Z,94.04
2018-01-19T06:00:46.288Z,93.65
2018-01-19T06:01:46.302Z,93.61
2018-01-19T06:02:46.316Z,93.94
2018-01-19T06:03:46.329Z,93.51
2018-01-19T06:04:46.343Z,93.65
2018-01-19T06:05:46.607Z,94.04
2018-01-19T06:06:46.625Z,93.8
2018-01-19T06:07:46.634Z,93.32
2018-01-19T06:08:46.647Z,93.89
2018-01-19T06:09:46.814Z,93.61
2018-01-19T06:10:46.672Z,93.7
2018-01-19T06:11:46.436Z,93.51
2018-01-19T06:12:46.699Z,93.99
2018-01-19T06:13:46.464Z,93.8
2018-01-19T06:14:46.726Z,92.76
2018-01-19T06:15:46.490Z,93.32
2018-01-19T06:16:46.753Z,94.04
2018-01-19T06:17:46.770Z,94.04
2018-01-19T06:18:46.780Z,92.99
2018-01-19T06:19:46.893Z,93.18
2018-01-19T06:20:46.569Z,93.04
2018-01-19T06:21:46.821Z,93.04
2018-01-19T06:22:46.583Z,92.85
2018-01-19T06:23:46.594Z,93.13
2018-01-19T06:24:46.910Z,93.04
2018-01-19T06:25:46.623Z,93.18
2018-01-19T06:26:46.889Z,92.94
2018-01-19T06:27:46.902Z,92.94
2018-01-19T06:28:46.669Z,92.9
2018-01-19T06:29:46.926Z,92.99
2018-01-19T06:30:46.938Z,93.13
2018-01-19T06:31:46.701Z,93.8
2018-01-19T06:32:46.966Z,93.32
2018-01-19T06:33:46.980Z,92.94
2018-01-19T06:34:47.004Z,93.13
2018-01-19T06:35:46.754Z,93.18
2018-01-19T06:36:46.780Z,92.8
2018-01-19T06:37:47.041Z,92.57
2018-01-19T06:38:47.047Z,93.08
2018-01-19T06:39:46.859Z,92.94
2018-01-19T06:40:47.070Z,93.18
2018-01-19T06:41:47.099Z,92.57
2018-01-19T06:42:47.100Z,93.08
2018-01-19T06:43:46.863Z,92.94
2018-01-19T06:44:47.125Z,93.13
2018-01-19T06:45:47.140Z,92.94
2018-01-19T06:46:47.152Z,92.57
2018-01-19T06:47:47.165Z,92.76
2018-01-19T06:48:46.927Z,92.57
2018-01-19T06:49:47.193Z,92.42
2018-01-19T06:50:47.206Z,92.71
2018-01-19T06:51:47.219Z,92.66
2018-01-19T06:52:46.982Z,93.13
2018-01-19T06:53:46.995Z,92.71
2018-01-19T06:54:47.312Z,92.28
2018-01-19T06:55:47.022Z,92.66
2018-01-19T06:56:47.290Z,92.85
2018-01-19T06:57:47.096Z,92.99
2018-01-19T06:58:47.314Z,92.38
2018-01-19T06:59:47.328Z,92.42
2018-01-19T07:00:47.341Z,92.23
2018-01-19T07:01:47.104Z,91.76
2018-01-19T07:02:47.118Z,92.42
2018-01-19T07:03:47.381Z,92.28
2018-01-19T07:04:47.395Z,92.19
2018-01-19T07:05:47.159Z,92.09
2018-01-19T07:06:47.424Z,92.14
2018-01-19T07:07:47.181Z,92.33
2018-01-19T07:08:47.448Z,91.85
2018-01-19T07:09:47.260Z,91.71
2018-01-19T07:10:47.222Z,91.76
2018-01-19T07:11:47.485Z,91.57
2018-01-19T07:12:47.505Z,91.76
2018-01-19T07:13:47.263Z,91.85
2018-01-19T07:14:47.534Z,92.04
2018-01-19T07:15:47.540Z,91.71
2018-01-19T07:16:47.557Z,91.76
2018-01-19T07:17:47.331Z,91.76
2018-01-19T07:18:47.587Z,91.66
2018-01-19T07:19:47.596Z,92.09
2018-01-19T07:20:47.359Z,91.95
2018-01-19T07:21:47.623Z,92.04
2018-01-19T07:22:47.385Z,91.38
2018-01-19T07:23:47.399Z,91.85
2018-01-19T07:24:47.858Z,91.76
2018-01-19T07:25:47.425Z,91.95
2018-01-19T07:26:47.693Z,92.52
2018-01-19T07:27:47.705Z,91.28
2018-01-19T07:28:47.466Z,91.28
2018-01-19T07:29:47.730Z,91.47
2018-01-19T07:30:47.750Z,91.38
2018-01-19T07:31:47.760Z,91.19
2018-01-19T07:32:47.775Z,91.28
2018-01-19T07:33:47.783Z,91.19
2018-01-19T07:34:47.797Z,90.24
2018-01-19T07:35:47.811Z,91.38
2018-01-19T07:36:47.574Z,91.38
2018-01-19T07:37:47.840Z,91
2018-01-19T07:38:47.602Z,91
2018-01-19T07:39:47.915Z,90.95
2018-01-19T07:40:47.879Z,90.81
2018-01-19T07:41:47.894Z,90.72
2018-01-19T07:42:47.911Z,90.62
2018-01-19T07:43:47.919Z,90.81
2018-01-19T07:44:47.731Z,90.81
2018-01-19T07:45:47.946Z,90.15
2018-01-19T07:46:47.959Z,89.82
2018-01-19T07:47:47.724Z,89.39
2018-01-19T07:48:47.987Z,89.82
2018-01-19T07:49:48.009Z,90.62
2018-01-19T07:50:48.012Z,89.67
2018-01-19T07:51:47.774Z,89.67
2018-01-19T07:52:48.042Z,90.62
2018-01-19T07:53:48.057Z,89.86
2018-01-19T07:54:48.126Z,88.73
2018-01-19T07:55:47.830Z,89.01
2018-01-19T07:56:47.840Z,89.96
2018-01-19T07:57:48.106Z,89.39
2018-01-19T07:58:48.161Z,89.58
2018-01-19T07:59:48.138Z,89.58
2018-01-19T08:00:48.147Z,89.01
2018-01-19T08:01:48.161Z,89.01
2018-01-19T08:02:48.174Z,89.11
2018-01-19T08:03:48.188Z,88.92
2018-01-19T08:04:47.954Z,89.39
2018-01-19T08:05:47.962Z,89.39
2018-01-19T08:06:47.977Z,88.73
2018-01-19T08:07:47.991Z,88.35
2018-01-19T08:08:48.302Z,88.44
2018-01-19T08:09:48.070Z,88.35
2018-01-19T08:10:48.031Z,88.92
2018-01-19T08:11:48.297Z,88.16
2018-01-19T08:12:48.312Z,88.82
2018-01-19T08:13:48.071Z,89.01
2018-01-19T08:14:48.337Z,88.63
2018-01-19T08:15:48.352Z,88.35
2018-01-19T08:16:48.364Z,88.92
2018-01-19T08:17:48.380Z,88.73
2018-01-19T08:18:48.391Z,88.92
2018-01-19T08:19:48.404Z,88.25
2018-01-19T08:20:48.422Z,88.16
2018-01-19T08:21:48.179Z,88.16
2018-01-19T08:22:48.445Z,87.97
2018-01-19T08:23:48.208Z,87.77
2018-01-19T08:24:48.574Z,88.06
2018-01-19T08:25:48.235Z,88.06
2018-01-19T08:26:48.250Z,87.97
2018-01-19T08:27:48.261Z,88.44
2018-01-19T08:28:48.532Z,87.97
2018-01-19T08:29:48.288Z,88.06
2018-01-19T08:30:48.554Z,87.87
2018-01-19T08:31:48.569Z,88.06
2018-01-19T08:32:48.583Z,87.73
2018-01-19T08:33:48.341Z,87.25
2018-01-19T08:34:48.605Z,86.97
2018-01-19T08:35:48.620Z,87.4
2018-01-19T08:36:48.384Z,87.16
2018-01-19T08:37:48.650Z,87.3
2018-01-19T08:38:48.412Z,85.5
2018-01-19T08:39:48.730Z,84.65
2018-01-19T08:40:48.442Z,84.55
2018-01-19T08:41:48.457Z,83.32
2018-01-19T08:42:48.719Z,84.46
2018-01-19T08:43:48.736Z,83.51
2018-01-19T08:44:48.498Z,83.04
2018-01-19T08:45:48.511Z,83.23
2018-01-19T08:46:48.776Z,83.98
2018-01-19T08:47:48.789Z,84.46
2018-01-19T08:48:48.808Z,84.36
2018-01-19T08:49:48.816Z,84.08
2018-01-19T08:50:48.579Z,84.17
2018-01-19T08:51:48.943Z,85.31
2018-01-19T08:52:48.864Z,85.22
2018-01-19T08:53:48.622Z,85.6
2018-01-19T08:54:48.685Z,85.97
2018-01-19T08:55:48.900Z,86.16
2018-01-19T08:56:48.661Z,86.07
2018-01-19T08:57:48.676Z,85.97
2018-01-19T08:58:48.941Z,86.55
2018-01-19T08:59:48.953Z,85.03
2018-01-19T09:00:48.717Z,84.55
2018-01-19T09:01:48.988Z,85.03
2018-01-19T09:02:48.748Z,85.22
2018-01-19T09:03:49.016Z,85.03
2018-01-19T09:04:49.029Z,85.83
2018-01-19T09:05:49.043Z,85.69
2018-01-19T09:06:48.867Z,84.12
2018-01-19T09:07:49.074Z,84.55
2018-01-19T09:08:49.085Z,84.03
2018-01-19T09:09:48.898Z,82.85
2018-01-19T09:10:49.113Z,83.51
2018-01-19T09:11:48.878Z,83.7
2018-01-19T09:12:49.196Z,83.61
2018-01-19T09:13:48.915Z,84.36
2018-01-19T09:14:49.172Z,84.55
2018-01-19T09:15:48.934Z,84.36
2018-01-19T09:16:49.200Z,84.78
2018-01-19T09:17:49.219Z,84.12
2018-01-19T09:18:49.227Z,83.36
2018-01-19T09:19:48.990Z,83.65
2018-01-19T09:20:49.258Z,83.17
2018-01-19T09:21:49.275Z,84.69
2018-01-19T09:22:49.286Z,84.03
2018-01-19T09:23:49.300Z,84.5
2018-01-19T09:24:49.115Z,84.78
2018-01-19T09:25:49.329Z,83.94
2018-01-19T09:26:49.091Z,84.03
2018-01-19T09:27:49.358Z,83.46
2018-01-19T09:28:49.371Z,83.36
2018-01-19T09:29:49.135Z,82.79
2018-01-19T09:30:49.400Z,82.79
2018-01-19T09:31:49.163Z,83.46
2018-01-19T09:32:49.430Z,84.41
2018-01-19T09:33:49.443Z,84.12
2018-01-19T09:34:49.206Z,84.41
2018-01-19T09:35:49.474Z,83.4
2018-01-19T09:36:49.237Z,83.31
2018-01-19T09:37:49.505Z,83.69
2018-01-19T09:38:49.551Z,83.55
2018-01-19T09:39:49.590Z,83.31
2018-01-19T09:40:49.296Z,82.46
2018-01-19T09:41:49.566Z,82.46
2018-01-19T09:42:49.616Z,82.46
2018-01-19T09:43:49.594Z,82.84
2018-01-19T09:44:49.608Z,82.65
2018-01-19T09:45:49.371Z,80.65
2018-01-19T09:46:49.638Z,80.52
2018-01-19T09:47:49.654Z,80.52
2018-01-19T09:48:49.671Z,79.99
2018-01-19T09:49:49.685Z,79.76
2018-01-19T09:50:49.700Z,79.95
2018-01-19T09:51:49.714Z,80.43
2018-01-19T09:52:49.745Z,80.52
2018-01-19T09:53:49.747Z,80.62
2018-01-19T09:54:49.559Z,80.04
2018-01-19T09:55:49.524Z,80.43
2018-01-19T09:56:49.538Z,81.27
2018-01-19T09:57:49.555Z,80.08
2018-01-19T09:58:49.840Z,79.71
2018-01-19T09:59:49.839Z,78.85
2018-01-19T10:00:49.852Z,78.47
2018-01-19T10:01:49.868Z,78.09
2018-01-19T10:02:49.631Z,78.72
2018-01-19T10:03:49.648Z,78.72
2018-01-19T10:04:49.679Z,78.19
2018-01-19T10:05:49.932Z,78.91
2018-01-19T10:06:49.946Z,79.38
2018-01-19T10:07:49.718Z,79.1
2018-01-19T10:08:49.727Z,78.24
2018-01-19T10:09:50.041Z,78.43
2018-01-19T10:10:49.757Z,78.72
2018-01-19T10:11:49.771Z,78.47
2018-01-19T10:12:50.040Z,77.81
2018-01-19T10:13:49.802Z,77.24
2018-01-19T10:14:50.070Z,78
2018-01-19T10:15:50.085Z,77.05
2018-01-19T10:16:50.100Z,76.86
2018-01-19T10:17:50.117Z,76.32
2018-01-19T10:18:49.883Z,74.9
2018-01-19T10:19:50.152Z,75.67
2018-01-19T10:20:50.171Z,74.43
2018-01-19T10:21:50.188Z,74.18
2018-01-19T10:22:49.956Z,74.08
2018-01-19T10:23:50.225Z,72.28
2018-01-19T10:24:50.301Z,72.75
2018-01-19T10:25:50.009Z,72.75
2018-01-19T10:26:50.280Z,72.66
2018-01-19T10:27:50.390Z,72.95
2018-01-19T10:28:50.367Z,71.37
2018-01-19T10:29:50.085Z,72.56
2018-01-19T10:30:50.357Z,71.75
2018-01-19T10:31:50.377Z,70.89
2018-01-19T10:32:50.143Z,70.42
2018-01-19T10:33:50.418Z,70.32
2018-01-19T10:34:50.180Z,70.76
2018-01-19T10:35:50.459Z,70.67
2018-01-19T10:36:50.219Z,70.13
2018-01-19T10:37:50.242Z,69.09
2018-01-19T10:38:50.514Z,69.27
2018-01-19T10:39:50.281Z,69.43
2018-01-19T10:40:50.548Z,68.61
2018-01-19T10:41:50.572Z,67.72
2018-01-19T10:42:50.384Z,69.15
2018-01-19T10:43:50.602Z,69.15
2018-01-19T10:44:50.785Z,68.61
2018-01-19T10:45:50.644Z,68.8
2018-01-19T10:46:50.658Z,68.01
2018-01-19T10:47:50.428Z,69.15
2018-01-19T10:48:50.444Z,68.96
2018-01-19T10:49:50.713Z,69.24
2018-01-19T10:50:50.732Z,68.39
2018-01-19T10:51:50.499Z,68.96
2018-01-19T10:52:50.514Z,69.81
2018-01-19T10:53:50.783Z,69.71
2018-01-19T10:54:50.802Z,69.53
2018-01-19T10:55:50.818Z,70.1
2018-01-19T10:56:50.851Z,70.1
2018-01-19T10:57:50.901Z,70.35
2018-01-19T10:58:50.873Z,70.06
2018-01-19T10:59:50.888Z,71.39
2018-01-19T11:00:50.904Z,70.73
2018-01-19T11:01:50.922Z,69.78
2018-01-19T11:02:50.685Z,69.78
2018-01-19T11:03:50.703Z,70.35
2018-01-19T11:04:50.972Z,70.54
2018-01-19T11:05:50.988Z,71.3
2018-01-19T11:06:51.020Z,71.39
2018-01-19T11:07:51.020Z,71.39
2018-01-19T11:08:50.790Z,72.06
2018-01-19T11:09:51.052Z,71.39
2018-01-19T11:10:51.066Z,72.15
2018-01-19T11:11:51.084Z,71.39
2018-01-19T11:12:51.103Z,71.2
2018-01-19T11:13:51.166Z,70.44
2018-01-19T11:14:50.881Z,70.06
2018-01-19T11:15:51.155Z,69.3
2018-01-19T11:16:51.166Z,70.15
2018-01-19T11:17:50.930Z,70.82
2018-01-19T11:18:51.202Z,70.73
2018-01-19T11:19:50.962Z,70.44
2018-01-19T11:20:51.236Z,69.3
2018-01-19T11:21:51.198Z,69.68
2018-01-19T11:22:51.011Z,69.4
2018-01-19T11:23:51.027Z,69.59
2018-01-19T11:24:51.045Z,69.4
2018-01-19T11:25:51.318Z,69.96
2018-01-19T11:26:51.077Z,70.35
2018-01-19T11:27:51.343Z,70.44
2018-01-19T11:28:51.420Z,70.15
2018-01-19T11:29:51.378Z,69.24
2018-01-19T11:30:51.143Z,67.34
2018-01-19T11:31:51.413Z,66.96
2018-01-19T11:32:51.432Z,65.47
2018-01-19T11:33:51.198Z,64.72
2018-01-19T11:34:51.218Z,63.86
2018-01-19T11:35:51.239Z,63.95
2018-01-19T11:36:51.261Z,64.05
2018-01-19T11:37:51.530Z,63.79
2018-01-19T11:38:51.301Z,61.74
2018-01-19T11:39:51.323Z,61.45
2018-01-19T11:40:51.653Z,59.67
2018-01-19T11:41:51.368Z,57.67
2018-01-19T11:42:51.639Z,57.87
2018-01-19T11:43:51.714Z,57.96
2018-01-19T11:44:51.438Z,56.24
2018-01-19T11:45:51.460Z,54.82
2018-01-19T11:46:51.740Z,55.29
2018-01-19T11:47:51.758Z,54.44
2018-01-19T11:48:51.534Z,53.39
2018-01-19T11:49:51.605Z,53.96
2018-01-19T11:50:51.833Z,54.15
2018-01-19T11:51:51.605Z,51.89
2018-01-19T11:52:51.879Z,51.04
2018-01-19T11:53:51.651Z,50.44
2018-01-19T11:54:51.675Z,51.68
2018-01-19T11:55:51.714Z,51.78
2018-01-19T11:56:51.739Z,51.39
2018-01-19T11:57:52.000Z,51.87
2018-01-19T11:58:51.775Z,51.39
2018-01-19T11:59:52.202Z,51.39
2018-01-19T12:00:51.822Z,52.89
2018-01-19T12:01:52.101Z,52.82
2018-01-19T12:02:51.870Z,52.06
2018-01-19T12:03:51.894Z,51.01
2018-01-19T12:04:51.916Z,51.1
2018-01-19T12:05:51.941Z,50.35
2018-01-19T12:06:52.220Z,50.54
2018-01-19T12:07:51.987Z,50.92
2018-01-19T12:08:52.012Z,51.84
2018-01-19T12:09:52.036Z,52.7
2018-01-19T12:10:52.059Z,52.06
2018-01-19T12:11:52.083Z,51.1
2018-01-19T12:12:52.104Z,50.85
2018-01-19T12:13:52.130Z,49.82
2018-01-19T12:14:52.201Z,49.23
2018-01-19T12:15:52.429Z,50.37
2018-01-19T12:16:52.198Z,51.51
2018-01-19T12:17:52.472Z,49.61
2018-01-19T12:18:52.242Z,48.92
2018-01-19T12:19:52.520Z,49.11
2018-01-19T12:20:52.293Z,49.2
2018-01-19T12:21:52.569Z,49.77
2018-01-19T12:22:52.596Z,49.87
2018-01-19T12:23:52.611Z,49.49
2018-01-19T12:24:52.632Z,49.01
2018-01-19T12:25:52.652Z,48.27
2018-01-19T12:26:52.426Z,48.73
2018-01-19T12:27:52.713Z,48.92
2018-01-19T12:28:52.723Z,48.92
2018-01-19T12:29:52.795Z,49.4
2018-01-19T12:30:52.522Z,49.18
2018-01-19T12:31:52.538Z,49.46
2018-01-19T12:32:52.812Z,49.18
2018-01-19T12:33:52.832Z,49.56
2018-01-19T12:34:52.604Z,49.75
2018-01-19T12:35:52.877Z,50.32
2018-01-19T12:36:52.901Z,49.46
2018-01-19T12:37:52.669Z,50.42
2018-01-19T12:38:52.692Z,50.23
2018-01-19T12:39:52.815Z,51.25
2018-01-19T12:40:52.987Z,51.06
2018-01-19T12:41:53.016Z,50.42
2018-01-19T12:42:52.778Z,48.63
2018-01-19T12:43:53.050Z,49.11
2018-01-19T12:44:53.121Z,49.27
2018-01-19T12:45:53.105Z,50.32
2018-01-19T12:46:53.121Z,50.51
2018-01-19T12:47:53.151Z,51.08
2018-01-19T12:48:52.914Z,50.79
2018-01-19T12:49:53.187Z,50.51
2018-01-19T12:50:52.973Z,50.06
2018-01-19T12:51:53.225Z,50.42
2018-01-19T12:52:52.997Z,50.63
2018-01-19T12:53:53.270Z,49.4
2018-01-19T12:54:53.292Z,48.18
2018-01-19T12:55:53.316Z,47.52
2018-01-19T12:56:53.339Z,48.08
2018-01-19T12:57:53.358Z,48.27
2018-01-19T12:58:53.128Z,48.11
2018-01-19T12:59:53.556Z,47.63
2018-01-19T13:00:53.428Z,48.97
2018-01-19T13:01:53.454Z,45.94
2018-01-19T13:02:53.472Z,44.56
2018-01-19T13:03:53.495Z,43.7
2018-01-19T13:04:53.520Z,44.37
2018-01-19T13:05:53.541Z,42.38
2018-01-19T13:06:53.566Z,42.96
2018-01-19T13:07:53.591Z,41.05
2018-01-19T13:08:53.364Z,40.78
2018-01-19T13:09:53.641Z,41.43
2018-01-19T13:10:53.670Z,42.08
2018-01-19T13:11:53.443Z,41.43
2018-01-19T13:12:53.722Z,40.88
2018-01-19T13:13:53.500Z,40.4
2018-01-19T13:14:53.824Z,39.37
2018-01-19T13:15:53.804Z,38.79
2018-01-19T13:16:53.826Z,39.56
2018-01-19T13:17:53.854Z,39.92
2018-01-19T13:18:53.626Z,40.47
2018-01-19T13:19:53.906Z,40.37
2018-01-19T13:20:53.680Z,40.83
2018-01-19T13:21:53.709Z,40.57
2018-01-19T13:22:53.739Z,39.9
2018-01-19T13:23:53.761Z,40.19
2018-01-19T13:24:53.788Z,40.45
2018-01-19T13:25:54.065Z,40.47
2018-01-19T13:26:53.842Z,41.31